FARG weather

Rustenburg Airport
Rustenburg, North-West, South Africa

Public forecast

Using degrees Celsius for public forecast. Weather courtesy of forecast.io.

Current aviation weather report (METAR) for Rustenburg Airport

Report is more than 6 hours old.

Retrieved 2018/09/17 02:00 UTC (1 year ago):

FARG 170200Z 08009KT CAVOK 16/07 Q1022 NOSIG

Closest aviation forecast (TAF) to Rustenburg Airport

Forecast is more than 12 hours old.

Closest forecast is Pilanesberg International Airport, 19.4 nm (35.9 km) NNW. Retrieved 2017/05/23 04:01 UTC (2 years ago):

TAF FAPN 230300Z 2304/2315 VRB02KT CAVOK TX25/2312ZTN03/2304Z